createdAt,value
2023-03-20T00:00:08.768Z,0.00
2023-03-20T00:01:08.789Z,0.00
2023-03-20T00:02:08.749Z,0.00
2023-03-20T00:03:08.733Z,0.00
2023-03-20T00:04:08.735Z,0.00
2023-03-20T00:05:08.820Z,0.00
2023-03-20T00:06:08.709Z,0.00
2023-03-20T00:07:08.741Z,0.00
2023-03-20T00:08:08.680Z,0.00
2023-03-20T00:09:08.668Z,0.00
2023-03-20T00:10:08.661Z,0.00
2023-03-20T00:11:08.648Z,0.00
2023-03-20T00:12:08.641Z,0.00
2023-03-20T00:13:08.648Z,0.00
2023-03-20T00:14:08.610Z,0.00
2023-03-20T00:15:08.601Z,0.00
2023-03-20T00:16:08.621Z,0.00
2023-03-20T00:17:08.580Z,0.00
2023-03-20T00:18:08.650Z,0.00
2023-03-20T00:19:08.548Z,0.00
2023-03-20T00:20:08.544Z,0.00
2023-03-20T00:21:08.534Z,0.00
2023-03-20T00:22:08.521Z,0.00
2023-03-20T00:23:08.500Z,0.00
2023-03-20T00:24:08.515Z,0.00
2023-03-20T00:25:08.479Z,0.00
2023-03-20T00:26:08.478Z,0.00
2023-03-20T00:27:08.460Z,0.00
2023-03-20T00:28:08.464Z,0.00
2023-03-20T00:29:08.459Z,0.00
2023-03-20T00:30:08.434Z,0.00
2023-03-20T00:31:08.458Z,0.00
2023-03-20T00:32:08.403Z,0.00
2023-03-20T00:33:08.444Z,0.00
2023-03-20T00:34:08.379Z,0.00
2023-03-20T00:35:08.392Z,0.00
2023-03-20T00:36:08.373Z,0.00
2023-03-20T00:37:08.341Z,0.00
2023-03-20T00:38:08.340Z,0.00
2023-03-20T00:39:08.320Z,0.00
2023-03-20T00:40:08.310Z,0.00
2023-03-20T00:41:08.320Z,0.00
2023-03-20T00:42:08.309Z,0.00
2023-03-20T00:43:08.282Z,0.00
2023-03-20T00:44:08.272Z,0.00
2023-03-20T00:45:08.255Z,0.00
2023-03-20T00:46:08.245Z,0.00
2023-03-20T00:47:08.370Z,0.00
2023-03-20T00:48:08.224Z,0.00
2023-03-20T00:49:08.201Z,0.00
2023-03-20T00:50:08.204Z,0.00
2023-03-20T00:51:08.194Z,0.00
2023-03-20T00:52:08.181Z,0.00
2023-03-20T00:53:08.200Z,0.00
2023-03-20T00:54:08.152Z,0.00
2023-03-20T00:55:08.132Z,0.00
2023-03-20T00:56:08.131Z,0.00
2023-03-20T00:57:08.118Z,0.00
2023-03-20T00:58:08.110Z,0.00
2023-03-20T00:59:08.125Z,0.00
2023-03-20T01:00:08.085Z,0.00
2023-03-20T01:01:08.102Z,0.00
2023-03-20T01:02:08.071Z,0.00
2023-03-20T01:03:08.052Z,0.00
2023-03-20T01:04:08.042Z,0.00
2023-03-20T01:05:08.042Z,0.00
2023-03-20T01:06:08.014Z,0.00
2023-03-20T01:07:08.003Z,0.00
2023-03-20T01:08:07.992Z,0.00
2023-03-20T01:09:07.981Z,0.00
2023-03-20T01:10:08.010Z,0.00
2023-03-20T01:11:07.951Z,0.00
2023-03-20T01:12:08.019Z,0.00
2023-03-20T01:13:07.931Z,0.00
2023-03-20T01:14:07.921Z,0.00
2023-03-20T01:15:07.912Z,0.00
2023-03-20T01:16:08.009Z,0.00
2023-03-20T01:17:07.879Z,0.00
2023-03-20T01:18:07.871Z,0.00
2023-03-20T01:19:07.868Z,0.00
2023-03-20T01:20:07.850Z,0.00
2023-03-20T01:21:07.840Z,0.00
2023-03-20T01:22:07.880Z,0.00
2023-03-20T01:23:07.823Z,0.00
2023-03-20T01:24:07.801Z,0.00
2023-03-20T01:25:07.797Z,0.00
2023-03-20T01:26:07.779Z,0.00
2023-03-20T01:27:07.768Z,0.00
2023-03-20T01:28:07.779Z,0.00
2023-03-20T01:29:07.746Z,0.00
2023-03-20T01:30:07.737Z,0.00
2023-03-20T01:31:07.721Z,0.00
2023-03-20T01:32:07.791Z,0.00
2023-03-20T01:33:07.770Z,0.00
2023-03-20T01:34:07.689Z,0.00
2023-03-20T01:35:07.686Z,0.00
2023-03-20T01:36:07.696Z,0.00
2023-03-20T01:37:07.648Z,0.00
2023-03-20T01:38:07.638Z,0.00
2023-03-20T01:39:07.697Z,0.00
2023-03-20T01:40:07.623Z,0.00
2023-03-20T01:41:07.607Z,0.00
2023-03-20T01:42:07.621Z,0.00
2023-03-20T01:43:07.588Z,0.00
2023-03-20T01:44:07.568Z,0.00
2023-03-20T01:45:07.586Z,0.00
2023-03-20T01:46:07.587Z,0.00
2023-03-20T01:47:07.540Z,0.00
2023-03-20T01:48:07.531Z,0.00
2023-03-20T01:49:07.520Z,0.00
2023-03-20T01:50:07.570Z,0.00
2023-03-20T01:51:07.495Z,0.00
2023-03-20T01:52:07.483Z,0.00
2023-03-20T01:53:07.477Z,0.00
2023-03-20T01:54:07.469Z,0.00
2023-03-20T01:55:07.450Z,0.00
2023-03-20T01:56:07.586Z,0.00
2023-03-20T01:57:07.422Z,0.00
2023-03-20T01:58:07.419Z,0.00
2023-03-20T01:59:07.406Z,0.00
2023-03-20T02:00:07.390Z,0.00
2023-03-20T02:01:07.407Z,0.00
2023-03-20T02:02:07.406Z,0.00
2023-03-20T02:03:07.351Z,0.00
2023-03-20T02:04:07.341Z,0.00
2023-03-20T02:05:07.369Z,0.00
2023-03-20T02:06:07.321Z,0.00
2023-03-20T02:07:07.316Z,0.00
2023-03-20T02:08:07.332Z,0.00
2023-03-20T02:09:07.285Z,0.00
2023-03-20T02:10:07.285Z,0.00
2023-03-20T02:11:07.270Z,0.00
2023-03-20T02:12:07.251Z,0.00
2023-03-20T02:13:07.243Z,0.00
2023-03-20T02:14:07.261Z,0.00
2023-03-20T02:15:07.221Z,0.00
2023-03-20T02:16:07.210Z,0.00
2023-03-20T02:17:07.199Z,0.00
2023-03-20T02:18:07.180Z,0.00
2023-03-20T02:19:07.181Z,0.00
2023-03-20T02:20:07.180Z,0.00
2023-03-20T02:21:07.152Z,0.00
2023-03-20T02:22:07.141Z,0.00
2023-03-20T02:23:07.131Z,0.00
2023-03-20T02:24:07.113Z,0.00
2023-03-20T02:25:07.127Z,0.00
2023-03-20T02:26:07.089Z,0.00
2023-03-20T02:27:07.098Z,0.00
2023-03-20T02:28:07.070Z,0.00
2023-03-20T02:29:07.050Z,0.00
2023-03-20T02:30:07.067Z,0.00
2023-03-20T02:31:07.108Z,0.00
2023-03-20T02:32:07.023Z,0.00
2023-03-20T02:33:07.112Z,0.00
2023-03-20T02:34:06.999Z,0.00
2023-03-20T02:35:06.993Z,0.00
2023-03-20T02:36:07.030Z,0.00
2023-03-20T02:37:06.968Z,0.00
2023-03-20T02:38:06.954Z,0.00
2023-03-20T02:39:06.949Z,0.00
2023-03-20T02:40:06.934Z,0.00
2023-03-20T02:41:06.992Z,0.00
2023-03-20T02:42:06.919Z,0.00
2023-03-20T02:43:06.891Z,0.00
2023-03-20T02:44:06.880Z,0.00
2023-03-20T02:45:06.879Z,0.00
2023-03-20T02:46:06.934Z,0.00
2023-03-20T02:47:06.881Z,0.00
2023-03-20T02:48:06.842Z,0.00
2023-03-20T02:49:06.829Z,0.00
2023-03-20T02:50:06.828Z,0.00
2023-03-20T02:51:06.813Z,0.00
2023-03-20T02:52:06.791Z,0.00
2023-03-20T02:53:06.814Z,0.00
2023-03-20T02:54:06.772Z,0.00
2023-03-20T02:55:06.760Z,0.00
2023-03-20T02:56:06.750Z,0.00
2023-03-20T02:57:06.744Z,0.00
2023-03-20T02:58:06.729Z,0.00
2023-03-20T02:59:06.734Z,0.00
2023-03-20T03:00:06.702Z,0.00
2023-03-20T03:01:06.691Z,0.00
2023-03-20T03:02:06.701Z,0.00
2023-03-20T03:03:06.684Z,0.00
2023-03-20T03:04:06.681Z,0.00
2023-03-20T03:05:06.649Z,0.00
2023-03-20T03:06:06.635Z,0.00
2023-03-20T03:07:06.636Z,0.00
2023-03-20T03:08:06.620Z,0.00
2023-03-20T03:09:06.606Z,0.00
2023-03-20T03:10:06.683Z,0.00
2023-03-20T03:11:06.584Z,0.00
2023-03-20T03:12:06.594Z,0.00
2023-03-20T03:13:06.552Z,0.00
2023-03-20T03:14:06.561Z,0.00
2023-03-20T03:15:06.532Z,0.00
2023-03-20T03:16:06.600Z,0.00
2023-03-20T03:17:06.529Z,0.00
2023-03-20T03:18:06.730Z,0.00
2023-03-20T03:19:06.511Z,0.00
2023-03-20T03:20:06.470Z,0.00
2023-03-20T03:21:06.461Z,0.00
2023-03-20T03:22:06.474Z,0.00
2023-03-20T03:23:06.441Z,0.00
2023-03-20T03:24:06.429Z,0.00
2023-03-20T03:25:06.427Z,0.00
2023-03-20T03:26:06.402Z,0.00
2023-03-20T03:27:06.441Z,0.00
2023-03-20T03:28:06.390Z,0.00
2023-03-20T03:29:06.373Z,0.00
2023-03-20T03:30:06.351Z,0.00
2023-03-20T03:31:06.384Z,0.00
2023-03-20T03:32:06.339Z,0.00
2023-03-20T03:33:06.360Z,0.00
2023-03-20T03:34:06.358Z,0.00
2023-03-20T03:35:06.308Z,0.00
2023-03-20T03:36:06.306Z,0.00
2023-03-20T03:37:06.280Z,0.00
2023-03-20T03:38:06.280Z,0.00
2023-03-20T03:39:06.275Z,0.00
2023-03-20T03:40:06.239Z,0.00
2023-03-20T03:41:06.240Z,0.00
2023-03-20T03:42:06.225Z,0.00
2023-03-20T03:43:06.210Z,0.00
2023-03-20T03:44:06.221Z,0.00
2023-03-20T03:45:06.192Z,0.00
2023-03-20T03:46:06.192Z,0.00
2023-03-20T03:47:06.172Z,0.00
2023-03-20T03:48:06.153Z,0.00
2023-03-20T03:49:06.151Z,0.00
2023-03-20T03:50:06.162Z,0.00
2023-03-20T03:51:06.123Z,0.00
2023-03-20T03:52:06.110Z,0.00
2023-03-20T03:53:06.092Z,0.00
2023-03-20T03:54:06.090Z,0.00
2023-03-20T03:55:06.086Z,0.00
2023-03-20T03:56:06.127Z,0.00
2023-03-20T03:57:06.055Z,0.00
2023-03-20T03:58:06.048Z,0.00
2023-03-20T03:59:06.038Z,0.00
2023-03-20T04:00:06.014Z,0.00
2023-03-20T04:01:06.033Z,0.00
2023-03-20T04:02:06.013Z,0.00
2023-03-20T04:03:05.985Z,0.00
2023-03-20T04:04:05.979Z,0.00
2023-03-20T04:05:06.015Z,0.00
2023-03-20T04:06:05.963Z,0.00
2023-03-20T04:07:05.959Z,0.00
2023-03-20T04:08:05.928Z,0.00
2023-03-20T04:09:05.917Z,0.00
2023-03-20T04:10:05.907Z,0.00
2023-03-20T04:11:05.893Z,0.00
2023-03-20T04:12:05.909Z,0.00
2023-03-20T04:13:05.867Z,0.00
2023-03-20T04:14:05.855Z,0.00
2023-03-20T04:15:05.846Z,0.00
2023-03-20T04:16:05.867Z,0.00
2023-03-20T04:17:05.825Z,0.00
2023-03-20T04:18:05.836Z,0.00
2023-03-20T04:19:05.806Z,0.00
2023-03-20T04:20:05.802Z,0.00
2023-03-20T04:21:05.784Z,0.00
2023-03-20T04:22:05.765Z,0.00
2023-03-20T04:23:05.757Z,0.00
2023-03-20T04:24:05.782Z,0.00
2023-03-20T04:25:05.739Z,0.00
2023-03-20T04:26:05.720Z,0.00
2023-03-20T04:27:05.720Z,0.00
2023-03-20T04:28:05.706Z,0.00
2023-03-20T04:29:05.686Z,0.00
2023-03-20T04:30:05.691Z,0.00
2023-03-20T04:31:05.667Z,0.00
2023-03-20T04:32:05.660Z,0.00
2023-03-20T04:33:05.674Z,0.00
2023-03-20T04:34:05.626Z,0.00
2023-03-20T04:35:05.646Z,0.00
2023-03-20T04:36:05.664Z,0.00
2023-03-20T04:37:05.620Z,0.00
2023-03-20T04:38:05.597Z,0.00
2023-03-20T04:39:05.581Z,0.00
2023-03-20T04:40:05.599Z,0.00
2023-03-20T04:41:05.659Z,0.00
2023-03-20T04:42:05.600Z,0.00
2023-03-20T04:43:05.558Z,0.00
2023-03-20T04:44:05.516Z,0.00
2023-03-20T04:45:05.551Z,0.00
2023-03-20T04:46:05.588Z,0.00
2023-03-20T04:47:05.608Z,0.00
2023-03-20T04:48:05.470Z,0.00
2023-03-20T04:49:05.470Z,0.00
2023-03-20T04:50:05.450Z,0.00
2023-03-20T04:51:05.439Z,0.00
2023-03-20T04:52:05.428Z,0.00
2023-03-20T04:53:05.460Z,0.00
2023-03-20T04:54:05.406Z,0.00
2023-03-20T04:55:05.402Z,0.00
2023-03-20T04:56:05.378Z,0.00
2023-03-20T04:57:05.372Z,0.00
2023-03-20T04:58:05.396Z,0.00
2023-03-20T04:59:05.381Z,0.00
2023-03-20T05:00:05.328Z,0.00
2023-03-20T05:01:05.355Z,0.00
2023-03-20T05:02:05.338Z,0.00
2023-03-20T05:03:05.295Z,4.00
2023-03-20T05:04:05.368Z,4.00
2023-03-20T05:05:05.282Z,0.00
2023-03-20T05:06:05.269Z,4.00
2023-03-20T05:07:05.257Z,4.00
2023-03-20T05:08:05.237Z,4.00
2023-03-20T05:09:05.230Z,4.00
2023-03-20T05:10:05.236Z,4.00
2023-03-20T05:11:05.206Z,8.00
2023-03-20T05:12:05.191Z,12.00
2023-03-20T05:13:05.195Z,12.00
2023-03-20T05:14:05.192Z,16.00
2023-03-20T05:15:05.195Z,20.00
2023-03-20T05:16:05.145Z,24.00
2023-03-20T05:17:05.181Z,32.00
2023-03-20T05:18:05.134Z,40.00
2023-03-20T05:19:05.135Z,52.00
2023-03-20T05:20:05.108Z,60.00
2023-03-20T05:21:05.131Z,64.00
2023-03-20T05:22:05.075Z,72.00
2023-03-20T05:23:06.366Z,80.00
2023-03-20T05:24:05.055Z,88.00
2023-03-20T05:25:05.043Z,100.00
2023-03-20T05:26:05.055Z,112.00
2023-03-20T05:27:05.044Z,124.00
2023-03-20T05:28:05.004Z,132.00
2023-03-20T05:29:04.997Z,148.00
2023-03-20T05:30:04.983Z,152.00
2023-03-20T05:31:05.069Z,156.00
2023-03-20T05:32:05.015Z,152.00
2023-03-20T05:33:05.025Z,144.00
2023-03-20T05:34:04.942Z,136.00
2023-03-20T05:35:05.215Z,140.00
2023-03-20T05:36:04.939Z,152.00
2023-03-20T05:37:04.911Z,172.00
2023-03-20T05:38:04.917Z,196.00
2023-03-20T05:39:04.884Z,224.00
2023-03-20T05:40:59.878Z,248.00
2023-03-20T05:41:59.866Z,244.00
2023-03-20T05:42:59.889Z,244.00
2023-03-20T05:43:59.840Z,240.00
2023-03-20T05:44:59.831Z,244.00
2023-03-20T05:45:59.868Z,264.00
2023-03-20T05:46:59.810Z,300.00
2023-03-20T05:47:59.814Z,340.00
2023-03-20T05:48:59.829Z,384.00
2023-03-20T05:49:59.783Z,448.00
2023-03-20T05:50:59.767Z,504.00
2023-03-20T05:51:59.761Z,552.00
2023-03-20T05:52:59.739Z,608.00
2023-03-20T05:53:59.734Z,648.00
2023-03-20T05:54:59.751Z,680.00
2023-03-20T05:55:59.715Z,728.00
2023-03-20T05:56:59.721Z,820.00
2023-03-20T05:57:59.689Z,880.00
2023-03-20T05:58:59.670Z,888.00
2023-03-20T05:59:59.694Z,868.00
2023-03-20T06:00:59.652Z,824.00
2023-03-20T06:01:59.641Z,784.00
2023-03-20T06:02:59.743Z,752.00
2023-03-20T06:03:59.706Z,720.00
2023-03-20T06:04:59.608Z,692.00
2023-03-20T06:05:59.652Z,664.00
2023-03-20T06:06:59.593Z,640.00
2023-03-20T06:07:59.580Z,624.00
2023-03-20T06:08:59.587Z,616.00
2023-03-20T06:09:59.558Z,636.00
2023-03-20T06:10:59.541Z,668.00
2023-03-20T06:11:59.582Z,684.00
2023-03-20T06:12:59.549Z,700.00
2023-03-20T06:13:59.514Z,704.00
2023-03-20T06:14:59.503Z,688.00
2023-03-20T06:15:59.508Z,636.00
2023-03-20T06:16:59.566Z,592.00
2023-03-20T06:17:59.471Z,536.00
2023-03-20T06:18:59.471Z,488.00
2023-03-20T06:19:59.446Z,452.00
2023-03-20T06:20:59.447Z,440.00
2023-03-20T06:21:59.423Z,448.00
2023-03-20T06:22:59.552Z,472.00
2023-03-20T06:23:59.394Z,496.00
2023-03-20T06:24:59.382Z,508.00
2023-03-20T06:25:59.376Z,540.00
2023-03-20T06:26:59.393Z,564.00
2023-03-20T06:27:59.354Z,604.00
2023-03-20T06:28:59.372Z,680.00
2023-03-20T06:29:59.331Z,780.00
2023-03-20T06:30:59.378Z,900.00
2023-03-20T06:31:59.311Z,1028.00
2023-03-20T06:32:59.347Z,1128.00
2023-03-20T06:33:59.287Z,1248.00
2023-03-20T06:34:59.294Z,1360.00
2023-03-20T06:35:59.289Z,1476.00
2023-03-20T06:36:59.264Z,1584.00
2023-03-20T06:37:59.241Z,1688.00
2023-03-20T06:38:59.234Z,1876.00
2023-03-20T06:39:59.250Z,2024.00
2023-03-20T06:40:59.209Z,2184.00
2023-03-20T06:41:59.198Z,2340.00
2023-03-20T06:42:59.180Z,2528.00
2023-03-20T06:43:59.173Z,2736.00
2023-03-20T06:44:59.156Z,2860.00
2023-03-20T06:45:59.275Z,2952.00
2023-03-20T06:46:59.147Z,2916.00
2023-03-20T06:47:59.128Z,2712.00
2023-03-20T06:48:59.110Z,2544.00
2023-03-20T06:49:59.125Z,2600.00
2023-03-20T06:50:59.095Z,2736.00
2023-03-20T06:51:59.410Z,2876.00
2023-03-20T06:52:59.068Z,2996.00
2023-03-20T06:53:59.064Z,3048.00
2023-03-20T06:54:59.073Z,3092.00
2023-03-20T06:55:59.043Z,3140.00
2023-03-20T06:56:59.038Z,3320.00
2023-03-20T06:57:59.061Z,3456.00
2023-03-20T06:58:59.041Z,3516.00
2023-03-20T06:59:59.101Z,3460.00
2023-03-20T07:00:58.993Z,3228.00
2023-03-20T07:01:59.066Z,3112.00
2023-03-20T07:03:01.073Z,3088.00
2023-03-20T07:03:58.985Z,2992.00
2023-03-20T07:04:59.057Z,2952.00
2023-03-20T07:05:58.927Z,3044.00
2023-03-20T07:06:58.921Z,3188.00
2023-03-20T07:07:58.929Z,3248.00
2023-03-20T07:08:58.899Z,3412.00
2023-03-20T07:09:58.924Z,3484.00
2023-03-20T07:10:58.867Z,3612.00
2023-03-20T07:11:58.862Z,3836.00
2023-03-20T07:12:58.857Z,3792.00
2023-03-20T07:13:58.836Z,3684.00
2023-03-20T07:14:58.829Z,3596.00
2023-03-20T07:16:04.630Z,3660.00
2023-03-20T07:16:59.873Z,3772.00
2023-03-20T07:17:58.793Z,3880.00
2023-03-20T07:18:58.776Z,3960.00
2023-03-20T07:19:58.784Z,3968.00
2023-03-20T07:20:58.823Z,3928.00
2023-03-20T07:21:58.782Z,3884.00
2023-03-20T07:22:58.730Z,4020.00
2023-03-20T07:23:58.726Z,4044.00
2023-03-20T07:24:58.716Z,3920.00
2023-03-20T07:25:58.714Z,3660.00
2023-03-20T07:26:58.712Z,3464.00
2023-03-20T07:27:58.676Z,3504.00
2023-03-20T07:28:58.666Z,3516.00
2023-03-20T07:29:58.660Z,3476.00
2023-03-20T07:30:58.779Z,3284.00
2023-03-20T07:31:58.688Z,3140.00
2023-03-20T07:32:58.656Z,3064.00
2023-03-20T07:33:58.621Z,2884.00
2023-03-20T07:34:58.597Z,2748.00
2023-03-20T07:35:58.638Z,2668.00
2023-03-20T07:36:58.578Z,2392.00
2023-03-20T07:37:58.638Z,2164.00
2023-03-20T07:38:58.559Z,2136.00
2023-03-20T07:39:58.544Z,2212.00
2023-03-20T07:40:58.537Z,2284.00
2023-03-20T07:41:58.522Z,2344.00
2023-03-20T07:42:58.511Z,2388.00
2023-03-20T07:43:58.532Z,2392.00
2023-03-20T07:44:58.484Z,2548.00
2023-03-20T07:45:58.520Z,2712.00
2023-03-20T07:46:58.497Z,2792.00
2023-03-20T07:47:58.489Z,2656.00
2023-03-20T07:48:58.448Z,2456.00
2023-03-20T07:49:58.483Z,2296.00
2023-03-20T07:50:58.411Z,2240.00
2023-03-20T07:51:58.411Z,2240.00
2023-03-20T07:52:58.399Z,2204.00
2023-03-20T07:53:58.384Z,2136.00
2023-03-20T07:54:58.379Z,2148.00
2023-03-20T07:55:58.413Z,2204.00
2023-03-20T07:56:58.344Z,2192.00
2023-03-20T07:57:58.342Z,2172.00
2023-03-20T07:58:58.330Z,2184.00
2023-03-20T07:59:58.310Z,2260.00
2023-03-20T08:00:58.303Z,2368.00
2023-03-20T08:01:58.341Z,2468.00
2023-03-20T08:02:58.350Z,2568.00
2023-03-20T08:03:58.569Z,2812.00
2023-03-20T08:04:58.251Z,3076.00
2023-03-20T08:05:58.251Z,3224.00
2023-03-20T08:06:58.318Z,3352.00
2023-03-20T08:07:58.262Z,3612.00
2023-03-20T08:08:58.214Z,4104.00
2023-03-20T08:09:58.208Z,4772.00
2023-03-20T08:10:58.208Z,5468.00
2023-03-20T08:11:58.202Z,6044.00
2023-03-20T08:12:58.173Z,6976.00
2023-03-20T08:13:58.189Z,8172.00
2023-03-20T08:14:58.169Z,9316.00
2023-03-20T08:15:58.153Z,10208.00
2023-03-20T08:17:12.864Z,10284.00
2023-03-20T08:17:59.113Z,10652.00
2023-03-20T08:18:58.134Z,10944.00
2023-03-20T08:19:58.098Z,11176.00
2023-03-20T08:20:58.116Z,11416.00
2023-03-20T08:21:58.069Z,11300.00
2023-03-20T08:22:58.071Z,11016.00
2023-03-20T08:23:58.058Z,11020.00
2023-03-20T08:24:58.261Z,11340.00
2023-03-20T08:25:58.025Z,11220.00
2023-03-20T08:26:58.016Z,9204.00
2023-03-20T08:27:58.019Z,7928.00
2023-03-20T08:28:58.094Z,6932.00
2023-03-20T08:29:57.988Z,6204.00
2023-03-20T08:30:58.114Z,6016.00
2023-03-20T08:31:57.969Z,6144.00
2023-03-20T08:32:58.024Z,6080.00
2023-03-20T08:33:57.940Z,6016.00
2023-03-20T08:34:57.933Z,5736.00
2023-03-20T08:35:58.027Z,5644.00
2023-03-20T08:36:57.906Z,5492.00
2023-03-20T08:37:57.890Z,5232.00
2023-03-20T08:38:57.893Z,4736.00
2023-03-20T08:39:57.879Z,4464.00
2023-03-20T08:40:57.858Z,4536.00
2023-03-20T08:41:59.598Z,4812.00
2023-03-20T08:42:57.861Z,4908.00
2023-03-20T08:43:57.837Z,4932.00
2023-03-20T08:44:57.820Z,5220.00
2023-03-20T08:45:57.817Z,5300.00
2023-03-20T08:46:57.801Z,5200.00
2023-03-20T08:47:57.818Z,4908.00
2023-03-20T08:48:57.776Z,5204.00
2023-03-20T08:49:57.798Z,5904.00
2023-03-20T08:50:57.745Z,6592.00
2023-03-20T08:51:57.736Z,6964.00
2023-03-20T08:52:57.726Z,7440.00
2023-03-20T08:53:57.750Z,7952.00
2023-03-20T08:54:58.078Z,8272.00
2023-03-20T08:55:57.687Z,8144.00
2023-03-20T08:56:57.678Z,8604.00
2023-03-20T08:57:57.676Z,9632.00
2023-03-20T08:58:57.679Z,10672.00
2023-03-20T08:59:57.686Z,11628.00
2023-03-20T09:00:57.659Z,12508.00
2023-03-20T09:01:57.863Z,13304.00
2023-03-20T09:02:57.643Z,14724.00
2023-03-20T09:03:57.596Z,17344.00
2023-03-20T09:04:57.587Z,21344.00
2023-03-20T09:05:57.814Z,28032.00
2023-03-20T09:06:57.565Z,22784.00
2023-03-20T09:07:57.545Z,22912.00
2023-03-20T09:08:57.604Z,21216.00
2023-03-20T09:09:57.526Z,27936.00
2023-03-20T09:10:57.556Z,37760.00
2023-03-20T09:11:57.505Z,38240.00
2023-03-20T09:12:57.510Z,38144.00
2023-03-20T09:13:57.484Z,45664.00
2023-03-20T09:14:57.483Z,26368.00
2023-03-20T09:15:57.512Z,27488.00
2023-03-20T09:16:57.489Z,34656.00
2023-03-20T09:17:57.439Z,23552.00
2023-03-20T09:18:57.439Z,15136.00
2023-03-20T09:19:57.421Z,12776.00
2023-03-20T09:20:57.422Z,15980.00
2023-03-20T09:21:57.396Z,14408.00
2023-03-20T09:22:57.563Z,18656.00
2023-03-20T09:23:57.371Z,44384.00
2023-03-20T09:24:57.370Z,31264.00
2023-03-20T09:25:57.359Z,32544.00
2023-03-20T09:26:57.357Z,20768.00
2023-03-20T09:27:57.318Z,16928.00
2023-03-20T09:28:57.358Z,14840.00
2023-03-20T09:29:57.302Z,13520.00
2023-03-20T09:30:57.352Z,13572.00
2023-03-20T09:31:57.322Z,12072.00
2023-03-20T09:32:57.288Z,12108.00
2023-03-20T09:33:57.252Z,10540.00
2023-03-20T09:34:57.421Z,9868.00
2023-03-20T09:35:57.293Z,11708.00
2023-03-20T09:36:57.244Z,15340.00
2023-03-20T09:37:57.212Z,16868.00
2023-03-20T09:38:57.216Z,15560.00
2023-03-20T09:39:57.237Z,16548.00
2023-03-20T09:40:57.215Z,20576.00
2023-03-20T09:41:57.855Z,20128.00
2023-03-20T09:42:57.152Z,19008.00
2023-03-20T09:43:57.134Z,20576.00
2023-03-20T09:44:57.132Z,18272.00
2023-03-20T09:45:57.178Z,16540.00
2023-03-20T09:47:08.736Z,15880.00
2023-03-20T09:47:58.091Z,15648.00
2023-03-20T09:48:57.084Z,15220.00
2023-03-20T09:49:57.067Z,17888.00
2023-03-20T09:50:57.080Z,19040.00
2023-03-20T09:51:57.060Z,19040.00
2023-03-20T09:52:57.032Z,19008.00
2023-03-20T09:53:58.155Z,17728.00
2023-03-20T09:54:57.014Z,16324.00
2023-03-20T09:55:57.055Z,17440.00
2023-03-20T09:56:57.058Z,17920.00
2023-03-20T09:57:56.972Z,19136.00
2023-03-20T09:58:56.983Z,18400.00
2023-03-20T09:59:56.963Z,18560.00
2023-03-20T10:00:56.942Z,16476.00
2023-03-20T10:01:56.950Z,15628.00
2023-03-20T10:02:56.967Z,16548.00
2023-03-20T10:03:56.907Z,16920.00
2023-03-20T10:04:56.920Z,21696.00
2023-03-20T10:05:56.877Z,24064.00
2023-03-20T10:06:56.892Z,22080.00
2023-03-20T10:07:56.888Z,23296.00
2023-03-20T10:08:56.906Z,23520.00
2023-03-20T10:09:56.842Z,24480.00
2023-03-20T10:10:56.838Z,24768.00
2023-03-20T10:11:56.809Z,22944.00
2023-03-20T10:12:56.804Z,19680.00
2023-03-20T10:13:56.789Z,16928.00
2023-03-20T10:14:56.848Z,14296.00
2023-03-20T10:15:56.836Z,13112.00
2023-03-20T10:16:56.786Z,12664.00
2023-03-20T10:17:56.746Z,10064.00
2023-03-20T10:18:56.734Z,9476.00
2023-03-20T10:19:56.723Z,10964.00
2023-03-20T10:20:57.124Z,11388.00
2023-03-20T10:21:56.694Z,10380.00
2023-03-20T10:22:56.684Z,8292.00
2023-03-20T10:23:56.684Z,7596.00
2023-03-20T10:24:56.676Z,7276.00
2023-03-20T10:25:56.656Z,7084.00
2023-03-20T10:26:56.714Z,7556.00
2023-03-20T10:27:56.635Z,8008.00
2023-03-20T10:28:56.616Z,7964.00
2023-03-20T10:29:56.606Z,6996.00
2023-03-20T10:30:56.606Z,6708.00
2023-03-20T10:31:56.660Z,6232.00
2023-03-20T10:32:56.594Z,6012.00
2023-03-20T10:33:56.601Z,6596.00
2023-03-20T10:34:56.558Z,8108.00
2023-03-20T10:35:56.632Z,9356.00
2023-03-20T10:36:56.543Z,9652.00
2023-03-20T10:37:56.581Z,10084.00
2023-03-20T10:38:56.514Z,11836.00
2023-03-20T10:39:56.535Z,12720.00
2023-03-20T10:40:56.490Z,13148.00
2023-03-20T10:41:56.490Z,12544.00
2023-03-20T10:42:56.466Z,11312.00
2023-03-20T10:43:56.485Z,10068.00
2023-03-20T10:44:56.449Z,9220.00
2023-03-20T10:45:56.425Z,8712.00
2023-03-20T10:46:56.519Z,8088.00
2023-03-20T10:47:56.540Z,7520.00
2023-03-20T10:48:56.397Z,8428.00
2023-03-20T10:49:56.447Z,8896.00
2023-03-20T10:50:56.398Z,9120.00
2023-03-20T10:51:56.357Z,9072.00
2023-03-20T10:52:56.387Z,8612.00
2023-03-20T10:53:56.340Z,8628.00
2023-03-20T10:54:56.396Z,8252.00
2023-03-20T10:55:56.407Z,8420.00
2023-03-20T10:56:56.326Z,8824.00
2023-03-20T10:57:56.308Z,9672.00
2023-03-20T10:58:56.298Z,10040.00
2023-03-20T10:59:56.323Z,11512.00
2023-03-20T11:00:56.348Z,13088.00
2023-03-20T11:01:56.317Z,13096.00
2023-03-20T11:02:56.286Z,11584.00
2023-03-20T11:03:56.351Z,9148.00
2023-03-20T11:04:56.242Z,7008.00
2023-03-20T11:06:08.985Z,5524.00
2023-03-20T11:06:57.246Z,4688.00
2023-03-20T11:07:56.182Z,4504.00
2023-03-20T11:08:56.184Z,4788.00
2023-03-20T11:09:56.164Z,5880.00
2023-03-20T11:10:57.268Z,6636.00
2023-03-20T11:11:56.296Z,6528.00
2023-03-20T11:12:56.137Z,6232.00
2023-03-20T11:13:56.128Z,6036.00
2023-03-20T11:14:56.107Z,5604.00
2023-03-20T11:15:56.094Z,5232.00
2023-03-20T11:16:56.184Z,4896.00
2023-03-20T11:17:56.109Z,5012.00
2023-03-20T11:18:56.082Z,6292.00
2023-03-20T11:19:56.055Z,8964.00
2023-03-20T11:20:56.055Z,9420.00
2023-03-20T11:21:56.035Z,8968.00
2023-03-20T11:22:56.027Z,8140.00
2023-03-20T11:23:56.032Z,7184.00
2023-03-20T11:24:56.006Z,6908.00
2023-03-20T11:25:55.983Z,7408.00
2023-03-20T11:26:55.976Z,8476.00
2023-03-20T11:27:55.965Z,10540.00
2023-03-20T11:28:56.143Z,12120.00
2023-03-20T11:29:55.937Z,14632.00
2023-03-20T11:31:04.541Z,15656.00
2023-03-20T11:31:56.934Z,15244.00
2023-03-20T11:32:55.947Z,14892.00
2023-03-20T11:33:55.893Z,14776.00
2023-03-20T11:34:55.941Z,14412.00
2023-03-20T11:35:55.911Z,14156.00
2023-03-20T11:37:08.774Z,14616.00
2023-03-20T11:37:56.849Z,14904.00
2023-03-20T11:38:55.857Z,15188.00
2023-03-20T11:39:55.827Z,14948.00
2023-03-20T11:40:55.854Z,15320.00
2023-03-20T11:41:55.809Z,15480.00
2023-03-20T11:42:55.842Z,15576.00
2023-03-20T11:43:55.775Z,15408.00
2023-03-20T11:44:55.763Z,15224.00
2023-03-20T11:45:55.817Z,15048.00
2023-03-20T11:46:55.766Z,14736.00
2023-03-20T11:47:55.726Z,14416.00
2023-03-20T11:48:55.734Z,14004.00
2023-03-20T11:50:02.753Z,13600.00
2023-03-20T11:50:58.325Z,12916.00
2023-03-20T11:51:55.715Z,12600.00
2023-03-20T11:52:55.674Z,12464.00
2023-03-20T11:53:55.664Z,12004.00
2023-03-20T11:54:55.659Z,11728.00
2023-03-20T11:55:55.641Z,11544.00
2023-03-20T11:56:55.650Z,11348.00
2023-03-20T11:57:55.642Z,11348.00
2023-03-20T11:58:55.609Z,11480.00
2023-03-20T11:59:55.604Z,11532.00
2023-03-20T12:00:55.591Z,11592.00
2023-03-20T12:01:55.580Z,11584.00
2023-03-20T12:02:55.650Z,11644.00
2023-03-20T12:03:55.739Z,11684.00
2023-03-20T12:04:55.540Z,11844.00
2023-03-20T12:05:55.533Z,11972.00
2023-03-20T12:06:55.519Z,11968.00
2023-03-20T12:07:55.531Z,11976.00
2023-03-20T12:08:55.530Z,12028.00
2023-03-20T12:09:55.568Z,12084.00
2023-03-20T12:10:55.520Z,12100.00
2023-03-20T12:11:55.483Z,12028.00
2023-03-20T12:12:55.464Z,11932.00
2023-03-20T12:13:55.464Z,11868.00
2023-03-20T12:14:55.507Z,12032.00
2023-03-20T12:15:55.425Z,12368.00
2023-03-20T12:16:55.427Z,12116.00
2023-03-20T12:17:55.400Z,12124.00
2023-03-20T12:18:55.399Z,12772.00
2023-03-20T12:19:55.401Z,13836.00
2023-03-20T12:20:55.369Z,12872.00
2023-03-20T12:21:55.369Z,12472.00
2023-03-20T12:22:55.343Z,12156.00
2023-03-20T12:23:55.325Z,13320.00
2023-03-20T12:24:55.323Z,12780.00
2023-03-20T12:25:55.345Z,12180.00
2023-03-20T12:26:55.295Z,12340.00
2023-03-20T12:27:55.284Z,12496.00
2023-03-20T12:28:55.285Z,12404.00
2023-03-20T12:29:55.269Z,12080.00
2023-03-20T12:30:57.027Z,12100.00
2023-03-20T12:31:55.235Z,12016.00